Mckinley Sea — WDE5024 — position and weather

sailwx.info

Track history (hours):
 
Tides and Currents Weather Stations Pressure Air Temp Water Temp Dewpoint Dewpoint Depression Visibility Wind Speed Wind Dir Waves Ship Positions

Mckinley Sea

Owner: Kirby Offshore Marine, LLC, Staten Island, NY. More information available from US FCC via Universal Licensing System and Coast Guard Vessel Documentation Center.

Last reported at 2016-Jun-26 01:22 UTC. Time now 2016-Jun-26 21:05 UTC.
Position N 43°29' W 070°01'.

Length 41 m; draft 7 m.

Type: Tanker. MMSI: 367360980.

Date/timePositionNaut miles runAvg speedWind from/ knotsBaromVisibWave heightAir tempDewpointWater temp
2016-Jun-26 01:22N 43°29' W 070°01'7 8.3
2016-Jun-26 00:33N 43°23' W 070°05'8 8.4
2016-Jun-25 23:33N 43°15' W 070°11'8 8.2
2016-Jun-25 22:33N 43°08' W 070°16'8 8.1
2016-Jun-25 21:33N 43°01' W 070°20'9 8.5
2016-Jun-25 20:33N 42°53' W 070°24'9 8.6
2016-Jun-25 19:33N 42°44' W 070°27'8 8.5
2016-Jun-25 18:33N 42°37' W 070°33'8 8.4
2016-Jun-25 17:33N 42°31' W 070°41'8 8.3
2016-Jun-25 16:33N 42°26' W 070°50'8 7.9
2016-Jun-25 15:33N 42°20' W 070°57'4 4.5
2016-Jun-25 14:33N 42°23' W 071°02'1 0.1
2016-Jun-24 22:21N 42°24' W 071°01'0 0.0
2016-Jun-24 21:33N 42°24' W 071°01'0 0.0
2016-Jun-24 20:19N 42°24' W 071°01'0 0.5
2016-Jun-24 19:34N 42°24' W 071°01'2 1.8
2016-Jun-24 18:34N 42°22' W 071°03'4 3.7
2016-Jun-24 17:33N 42°20' W 070°59'0 0.3
2016-Jun-24 16:32N 42°21' W 070°59'0 0.1
2016-Jun-24 15:32N 42°20' W 070°59'0 0.0
2016-Jun-24 14:32N 42°20' W 070°59'0 0.0
2016-Jun-24 13:32N 42°20' W 070°59'0 0.1
2016-Jun-24 12:32N 42°20' W 070°59'0 0.1
2016-Jun-24 11:32N 42°20' W 070°58'0 0.0
2016-Jun-24 10:32N 42°20' W 070°58'0 0.0
2016-Jun-24 09:32N 42°20' W 070°58'0 0.0
2016-Jun-24 08:32N 42°20' W 070°58'0 0.0
2016-Jun-24 07:32N 42°20' W 070°58'0 0.0
2016-Jun-24 04:32N 42°20' W 070°58'0 0.1
2016-Jun-24 03:32N 42°21' W 070°59'0 0.1
2016-Jun-24 02:32N 42°20' W 070°59'0 0.0
2016-Jun-24 01:32N 42°20' W 070°59'0 0.1
2016-Jun-24 00:32N 42°20' W 070°59'0 0.1
2016-Jun-23 23:32N 42°20' W 070°58'0 0.1
2016-Jun-23 22:32N 42°20' W 070°58'0 0.0
2016-Jun-23 21:32N 42°20' W 070°59'0 0.1
2016-Jun-23 20:32N 42°21' W 070°59'0 0.0
2016-Jun-23 19:32N 42°21' W 070°59'0 0.0
2016-Jun-23 18:32N 42°21' W 070°59'0 0.0
2016-Jun-23 17:32N 42°20' W 070°59'0 0.1
2016-Jun-23 16:32N 42°21' W 070°59'0 0.0
2016-Jun-23 15:32N 42°21' W 070°59'0 0.0
2016-Jun-23 14:32N 42°20' W 070°59'0 0.0
2016-Jun-23 13:32N 42°20' W 070°59'0 0.1
2016-Jun-23 12:32N 42°21' W 070°59'0 0.1
2016-Jun-23 11:32N 42°20' W 070°58'0 0.0
2016-Jun-23 10:32N 42°20' W 070°58'0 0.0
2016-Jun-23 09:32N 42°20' W 070°58'0 0.0
2016-Jun-23 08:32N 42°20' W 070°58'0 0.0
2016-Jun-23 07:32N 42°20' W 070°58'0 0.0
2016-Jun-23 05:32N 42°20' W 070°58'0 0.0
2016-Jun-23 04:32N 42°20' W 070°58'0 0.1
2016-Jun-23 03:32N 42°20' W 070°59'0 0.0
2016-Jun-23 02:32N 42°21' W 070°59'0 0.0
2016-Jun-23 01:32N 42°20' W 070°59'0 0.2
2016-Jun-23 00:32N 42°20' W 070°59'0 0.1
2016-Jun-22 23:32N 42°20' W 070°58'0 0.0
2016-Jun-22 22:32N 42°20' W 070°58'0 0.0
2016-Jun-22 21:32N 42°20' W 070°58'0 0.0
2016-Jun-22 20:32N 42°20' W 070°58'0 0.0
2016-Jun-22 19:32N 42°20' W 070°58'0 0.0
2016-Jun-22 18:32N 42°20' W 070°58'0 0.1
2016-Jun-22 17:32N 42°20' W 070°58'0 0.0
2016-Jun-22 16:32N 42°20' W 070°58'0 0.0
2016-Jun-22 15:32N 42°20' W 070°59'0 0.1
2016-Jun-22 14:32N 42°21' W 070°59'0 0.0
2016-Jun-22 13:33N 42°20' W 070°59'0 0.0
2016-Jun-22 12:33N 42°20' W 070°59'0 0.1
2016-Jun-22 11:33N 42°20' W 070°59'0 0.1
2016-Jun-22 10:33N 42°20' W 070°58'0 0.1
2016-Jun-22 09:33N 42°20' W 070°58'0 0.0
2016-Jun-22 08:33N 42°20' W 070°58'0 0.1
2016-Jun-22 07:33N 42°20' W 070°58'0 0.0
2016-Jun-22 06:33N 42°20' W 070°58'0 0.1
2016-Jun-22 05:33N 42°20' W 070°58'1 1.4
2016-Jun-22 04:33N 42°20' W 070°57'7 6.6
2016-Jun-22 03:33N 42°22' W 070°48'7 7.5
2016-Jun-22 02:33N 42°17' W 070°40'184 5.4
2016-Jun-20 16:15N 40°32' W 074°01'5 7.7
2016-Jun-20 15:33N 40°38' W 074°03'6 6.3
2016-Jun-20 14:33N 40°38' W 074°12'1 0.1
2016-Jun-19 16:27N 40°37' W 074°12'6 6.8
2016-Jun-19 15:33N 40°39' W 074°05'1 1.3
2016-Jun-19 14:32N 40°40' W 074°03'1 0.4
2016-Jun-19 12:29N 40°40' W 074°04'0 0.0
2016-Jun-19 07:26N 40°40' W 074°04'0 0.0
2016-Jun-19 06:14N 40°40' W 074°04'0 0.0
2016-Jun-19 03:32N 40°40' W 074°04'1 0.8
2016-Jun-19 02:33N 40°39' W 074°04'7 6.3
2016-Jun-19 01:26N 40°36' W 074°12'2 0.1
2016-Jun-17 20:32N 40°38' W 074°12'2 0.5
2016-Jun-17 16:33N 40°39' W 074°10'8 1.4
2016-Jun-17 10:33N 40°30' W 074°11'6 5.7
2016-Jun-17 09:33N 40°29' W 074°04'12 5.6
2016-Jun-17 07:22N 40°19' W 073°54'6 7.4
2016-Jun-17 06:30N 40°12' W 073°55'7 7.3
2016-Jun-17 05:31N 40°05' W 073°56'7 7.2
2016-Jun-17 04:33N 39°58' W 073°57'7 7.2
2016-Jun-17 03:33N 39°51' W 073°58'7 7.0
2016-Jun-17 02:33N 39°44' W 073°59'7 7.0
2016-Jun-17 01:33N 39°38' W 074°03'7 7.0
2016-Jun-17 00:33N 39°32' W 074°07'7 7.1
2016-Jun-16 23:33N 39°25' W 074°12'7 7.1
2016-Jun-16 22:33N 39°20' W 074°17'45 5.6
2016-Jun-16 14:32N 38°56' W 075°06'8 8.0
2016-Jun-16 13:33N 39°03' W 075°10'7 7.2
2016-Jun-16 12:33N 39°09' W 075°15'6 6.1
2016-Jun-16 11:33N 39°14' W 075°19'6 5.7
2016-Jun-16 10:33N 39°18' W 075°24'6 5.8
2016-Jun-16 09:33N 39°23' W 075°29'7 6.7
2016-Jun-16 08:33N 39°28' W 075°34'8 7.9
2016-Jun-16 07:33N 39°36' W 075°34'8 8.4
2016-Jun-16 06:33N 39°44' W 075°30'8 8.4
2016-Jun-16 05:33N 39°50' W 075°22'5 3.9
2016-Jun-16 04:18N 39°51' W 075°16'0 0.3
2016-Jun-16 03:30N 39°51' W 075°16'0 0.0
2016-Jun-16 02:30N 39°51' W 075°16'0 0.0
2016-Jun-16 01:30N 39°51' W 075°16'  
Track history (hours):
 
Tides and Currents Weather Stations Pressure Air Temp Water Temp Dewpoint Dewpoint Depression Visibility Wind Speed Wind Dir Waves Ship Positions

Mckinley Sea

Owner: Kirby Offshore Marine, LLC, Staten Island, NY. More information available from US FCC via Universal Licensing System and Coast Guard Vessel Documentation Center.

Last reported at 2016-Jun-26 01:22 UTC. Time now 2016-Jun-26 21:05 UTC.
Position N 43°29' W 070°01'.

Length 41 m; draft 7 m.

Type: Tanker. MMSI: 367360980.

Date/timePositionNaut miles runAvg speedWind from/ knotsBaromVisibWave heightAir tempDewpointWater temp
2016-Jun-26 01:22N 43°29' W 070°01'7 8.3
2016-Jun-26 00:33N 43°23' W 070°05'8 8.4
2016-Jun-25 23:33N 43°15' W 070°11'8 8.2
2016-Jun-25 22:33N 43°08' W 070°16'8 8.1
2016-Jun-25 21:33N 43°01' W 070°20'9 8.5
2016-Jun-25 20:33N 42°53' W 070°24'9 8.6
2016-Jun-25 19:33N 42°44' W 070°27'8 8.5
2016-Jun-25 18:33N 42°37' W 070°33'8 8.4
2016-Jun-25 17:33N 42°31' W 070°41'8 8.3
2016-Jun-25 16:33N 42°26' W 070°50'8 7.9
2016-Jun-25 15:33N 42°20' W 070°57'4 4.5
2016-Jun-25 14:33N 42°23' W 071°02'1 0.1
2016-Jun-24 22:21N 42°24' W 071°01'0 0.0
2016-Jun-24 21:33N 42°24' W 071°01'0 0.0
2016-Jun-24 20:19N 42°24' W 071°01'0 0.5
2016-Jun-24 19:34N 42°24' W 071°01'2 1.8
2016-Jun-24 18:34N 42°22' W 071°03'4 3.7
2016-Jun-24 17:33N 42°20' W 070°59'0 0.3
2016-Jun-24 16:32N 42°21' W 070°59'0 0.1
2016-Jun-24 15:32N 42°20' W 070°59'0 0.0
2016-Jun-24 14:32N 42°20' W 070°59'0 0.0
2016-Jun-24 13:32N 42°20' W 070°59'0 0.1
2016-Jun-24 12:32N 42°20' W 070°59'0 0.1
2016-Jun-24 11:32N 42°20' W 070°58'0 0.0
2016-Jun-24 10:32N 42°20' W 070°58'0 0.0
2016-Jun-24 09:32N 42°20' W 070°58'0 0.0
2016-Jun-24 08:32N 42°20' W 070°58'0 0.0
2016-Jun-24 07:32N 42°20' W 070°58'0 0.0
2016-Jun-24 04:32N 42°20' W 070°58'0 0.1
2016-Jun-24 03:32N 42°21' W 070°59'0 0.1
2016-Jun-24 02:32N 42°20' W 070°59'0 0.0
2016-Jun-24 01:32N 42°20' W 070°59'0 0.1
2016-Jun-24 00:32N 42°20' W 070°59'0 0.1
2016-Jun-23 23:32N 42°20' W 070°58'0 0.1
2016-Jun-23 22:32N 42°20' W 070°58'0 0.0
2016-Jun-23 21:32N 42°20' W 070°59'0 0.1
2016-Jun-23 20:32N 42°21' W 070°59'0 0.0
2016-Jun-23 19:32N 42°21' W 070°59'0 0.0
2016-Jun-23 18:32N 42°21' W 070°59'0 0.0
2016-Jun-23 17:32N 42°20' W 070°59'0 0.1
2016-Jun-23 16:32N 42°21' W 070°59'0 0.0
2016-Jun-23 15:32N 42°21' W 070°59'0 0.0
2016-Jun-23 14:32N 42°20' W 070°59'0 0.0
2016-Jun-23 13:32N 42°20' W 070°59'0 0.1
2016-Jun-23 12:32N 42°21' W 070°59'0 0.1
2016-Jun-23 11:32N 42°20' W 070°58'0 0.0
2016-Jun-23 10:32N 42°20' W 070°58'0 0.0
2016-Jun-23 09:32N 42°20' W 070°58'0 0.0
2016-Jun-23 08:32N 42°20' W 070°58'0 0.0
2016-Jun-23 07:32N 42°20' W 070°58'0 0.0
2016-Jun-23 05:32N 42°20' W 070°58'0 0.0
2016-Jun-23 04:32N 42°20' W 070°58'0 0.1
2016-Jun-23 03:32N 42°20' W 070°59'0 0.0
2016-Jun-23 02:32N 42°21' W 070°59'0 0.0
2016-Jun-23 01:32N 42°20' W 070°59'0 0.2
2016-Jun-23 00:32N 42°20' W 070°59'0 0.1
2016-Jun-22 23:32N 42°20' W 070°58'0 0.0
2016-Jun-22 22:32N 42°20' W 070°58'0 0.0
2016-Jun-22 21:32N 42°20' W 070°58'0 0.0
2016-Jun-22 20:32N 42°20' W 070°58'0 0.0
2016-Jun-22 19:32N 42°20' W 070°58'0 0.0
2016-Jun-22 18:32N 42°20' W 070°58'0 0.1
2016-Jun-22 17:32N 42°20' W 070°58'0 0.0
2016-Jun-22 16:32N 42°20' W 070°58'0 0.0
2016-Jun-22 15:32N 42°20' W 070°59'0 0.1
2016-Jun-22 14:32N 42°21' W 070°59'0 0.0
2016-Jun-22 13:33N 42°20' W 070°59'0 0.0
2016-Jun-22 12:33N 42°20' W 070°59'0 0.1
2016-Jun-22 11:33N 42°20' W 070°59'0 0.1
2016-Jun-22 10:33N 42°20' W 070°58'0 0.1
2016-Jun-22 09:33N 42°20' W 070°58'0 0.0
2016-Jun-22 08:33N 42°20' W 070°58'0 0.1
2016-Jun-22 07:33N 42°20' W 070°58'0 0.0
2016-Jun-22 06:33N 42°20' W 070°58'0 0.1
2016-Jun-22 05:33N 42°20' W 070°58'1 1.4
2016-Jun-22 04:33N 42°20' W 070°57'7 6.6
2016-Jun-22 03:33N 42°22' W 070°48'7 7.5
2016-Jun-22 02:33N 42°17' W 070°40'184 5.4
2016-Jun-20 16:15N 40°32' W 074°01'5 7.7
2016-Jun-20 15:33N 40°38' W 074°03'6 6.3
2016-Jun-20 14:33N 40°38' W 074°12'1 0.1
2016-Jun-19 16:27N 40°37' W 074°12'6 6.8
2016-Jun-19 15:33N 40°39' W 074°05'1 1.3
2016-Jun-19 14:32N 40°40' W 074°03'1 0.4
2016-Jun-19 12:29N 40°40' W 074°04'0 0.0
2016-Jun-19 07:26N 40°40' W 074°04'0 0.0
2016-Jun-19 06:14N 40°40' W 074°04'0 0.0
2016-Jun-19 03:32N 40°40' W 074°04'1 0.8
2016-Jun-19 02:33N 40°39' W 074°04'7 6.3
2016-Jun-19 01:26N 40°36' W 074°12'2 0.1
2016-Jun-17 20:32N 40°38' W 074°12'2 0.5
2016-Jun-17 16:33N 40°39' W 074°10'8 1.4
2016-Jun-17 10:33N 40°30' W 074°11'6 5.7
2016-Jun-17 09:33N 40°29' W 074°04'12 5.6
2016-Jun-17 07:22N 40°19' W 073°54'6 7.4
2016-Jun-17 06:30N 40°12' W 073°55'7 7.3
2016-Jun-17 05:31N 40°05' W 073°56'7 7.2
2016-Jun-17 04:33N 39°58' W 073°57'7 7.2
2016-Jun-17 03:33N 39°51' W 073°58'7 7.0
2016-Jun-17 02:33N 39°44' W 073°59'7 7.0
2016-Jun-17 01:33N 39°38' W 074°03'7 7.0
2016-Jun-17 00:33N 39°32' W 074°07'7 7.1
2016-Jun-16 23:33N 39°25' W 074°12'7 7.1
2016-Jun-16 22:33N 39°20' W 074°17'45 5.6
2016-Jun-16 14:32N 38°56' W 075°06'8 8.0
2016-Jun-16 13:33N 39°03' W 075°10'7 7.2
2016-Jun-16 12:33N 39°09' W 075°15'6 6.1
2016-Jun-16 11:33N 39°14' W 075°19'6 5.7
2016-Jun-16 10:33N 39°18' W 075°24'6 5.8
2016-Jun-16 09:33N 39°23' W 075°29'7 6.7
2016-Jun-16 08:33N 39°28' W 075°34'8 7.9
2016-Jun-16 07:33N 39°36' W 075°34'8 8.4
2016-Jun-16 06:33N 39°44' W 075°30'8 8.4
2016-Jun-16 05:33N 39°50' W 075°22'5 3.9
2016-Jun-16 04:18N 39°51' W 075°16'0 0.3
2016-Jun-16 03:30N 39°51' W 075°16'0 0.0
2016-Jun-16 02:30N 39°51' W 075°16'0 0.0
2016-Jun-16 01:30N 39°51' W 075°16'  

Dump ship's entire track history